Ana Sayfa
METAR-TAF:

METAR-TAF

Havaalanları :

Roatán, Honduras

Enlem: 16-19N, Boylam: 086-31W, yükseklik: 5 m

Güncel hava durumu gözlemi

Rapor saat 08:00 UTC de 26 dakika önce yapıldı.
Rüzgar doğu/güneydoğudan 16 kt
Sıcaklık 30°C
Nem 79%
Basınç 1007 hPa
Görüş mesafesi 10 km veya daha fazla
2200 ft yükseklikte az bulutlu

METAR: MHRO 150800Z 11016KT 9999 FEW022 30/26 Q1007 A2974 NOSIG

Saat: 02:26 (08:26 UTC)

Tahmin

Rapor saat 05:00 UTC de 3 saat ve 26 dakika önce yapıldı.
Ayın 15'si saat 06 UTC'den ayın 16'si saat 06 UTC'ye kadar geçerli Tahmin
Rüzgar doğu/güneydoğudan 10 kt
Görüş mesafesi 10 km veya daha fazla
2200 ft yükseklikte parçalı bulutlu

TAF: MHRO 150500Z 1506/1606 12010KT 9999 SCT022 TX32/1519Z TN28/1512Z

4.000'den fazla havaalanı için hava durumu gözlemleri ve tahminleri (METAR ve TAF raporları).

Kullanılabilir istasyonlar harita üzerinde sarı ve kırmızı noktalarla gösterilir.

İstasyonun adını görmek için fareyi noktanın üzerinde gezdirin.

Sonrasında hava gözlem ve tahminlerini görmek için tıklayın.

Haritayı değiştirmek için: yaklaştırmak için siyah artı işaretli yeşil düğmeye ve uzaklaştırmak için de eksi işaretli düğmeye hızla tıklayın; bitişik haritalar için yeşil okları kullanın.


METAR-TAF: